createdAt,value
2023-04-09T00:00:46.068Z,1026.91
2023-04-09T00:01:46.425Z,1026.96
2023-04-09T00:02:46.799Z,1026.94
2023-04-09T00:03:47.136Z,1026.89
2023-04-09T00:04:47.460Z,1026.96
2023-04-09T00:05:47.825Z,1026.87
2023-04-09T00:06:48.128Z,1026.92
2023-04-09T00:07:48.477Z,1026.90
2023-04-09T00:08:48.850Z,1026.89
2023-04-09T00:09:49.178Z,1026.83
2023-04-09T00:10:49.532Z,1026.85
2023-04-09T00:11:49.915Z,1026.84
2023-04-09T00:12:50.220Z,1026.83
2023-04-09T00:13:50.598Z,1026.86
2023-04-09T00:14:50.940Z,1026.86
2023-04-09T00:15:51.350Z,1026.91
2023-04-09T00:16:51.644Z,1026.84
2023-04-09T00:17:51.994Z,1026.85
2023-04-09T00:18:52.609Z,1026.85
2023-04-09T00:19:52.711Z,1026.82
2023-04-09T00:20:53.049Z,1026.87
2023-04-09T00:21:53.406Z,1026.86
2023-04-09T00:22:53.761Z,1026.81
2023-04-09T00:23:54.092Z,1026.89
2023-04-09T00:24:54.436Z,1026.85
2023-04-09T00:25:54.800Z,1026.89
2023-04-09T00:26:55.090Z,1026.83
2023-04-09T00:27:55.443Z,1026.80
2023-04-09T00:28:55.808Z,1026.86
2023-04-09T00:29:56.176Z,1026.81
2023-04-09T00:30:56.527Z,1026.89
2023-04-09T00:31:56.844Z,1026.78
2023-04-09T00:32:57.225Z,1026.82
2023-04-09T00:33:57.556Z,1026.81
2023-04-09T00:34:57.904Z,1026.86
2023-04-09T00:35:58.251Z,1026.80
2023-04-09T00:36:58.586Z,1026.80
2023-04-09T00:37:58.933Z,1026.76
2023-04-09T00:38:59.289Z,1026.79
2023-04-09T00:39:59.637Z,1026.76
2023-04-09T00:41:00.003Z,1026.81
2023-04-09T00:42:00.341Z,1026.72
2023-04-09T00:43:00.707Z,1026.73
2023-04-09T00:44:01.055Z,1026.74
2023-04-09T00:45:01.415Z,1026.73
2023-04-09T00:46:01.798Z,1026.77
2023-04-09T00:47:02.104Z,1026.71
2023-04-09T00:48:02.490Z,1026.73
2023-04-09T00:49:02.806Z,1026.76
2023-04-09T00:50:03.174Z,1026.73
2023-04-09T00:51:03.575Z,1026.77
2023-04-09T00:52:03.855Z,1026.72
2023-04-09T00:53:04.185Z,1026.69
2023-04-09T00:54:04.552Z,1026.71
2023-04-09T00:55:04.996Z,1026.68
2023-04-09T00:56:05.253Z,1026.68
2023-04-09T00:57:05.597Z,1026.70
2023-04-09T00:58:05.938Z,1026.64
2023-04-09T00:59:06.280Z,1026.68
2023-04-09T01:00:06.651Z,1026.66
2023-04-09T01:01:07.033Z,1026.68
2023-04-09T01:02:07.429Z,1026.68
2023-04-09T01:03:07.747Z,1026.66
2023-04-09T01:04:08.050Z,1026.67
2023-04-09T01:05:08.396Z,1026.65
2023-04-09T01:06:08.776Z,1026.67
2023-04-09T01:07:09.098Z,1026.66
2023-04-09T01:08:09.475Z,1026.64
2023-04-09T01:09:09.814Z,1026.67
2023-04-09T01:10:10.116Z,1026.65
2023-04-09T01:11:10.484Z,1026.70
2023-04-09T01:12:10.825Z,1026.65
2023-04-09T01:13:11.159Z,1026.67
2023-04-09T01:14:11.497Z,1026.68
2023-04-09T01:15:11.836Z,1026.71
2023-04-09T01:16:12.226Z,1026.73
2023-04-09T01:17:12.517Z,1026.71
2023-04-09T01:18:12.870Z,1026.68
2023-04-09T01:19:13.216Z,1026.70
2023-04-09T01:20:13.565Z,1026.71
2023-04-09T01:21:13.952Z,1026.68
2023-04-09T01:22:14.290Z,1026.70
2023-04-09T01:23:14.625Z,1026.75
2023-04-09T01:24:14.978Z,1026.76
2023-04-09T01:25:15.321Z,1026.71
2023-04-09T01:26:15.704Z,1026.69
2023-04-09T01:27:16.020Z,1026.68
2023-04-09T01:28:16.383Z,1026.70
2023-04-09T01:29:16.722Z,1026.71
2023-04-09T01:30:17.069Z,1026.71
2023-04-09T01:31:17.451Z,1026.66
2023-04-09T01:32:17.785Z,1026.70
2023-04-09T01:33:18.120Z,1026.67
2023-04-09T01:34:18.472Z,1026.67
2023-04-09T01:35:18.819Z,1026.62
2023-04-09T01:36:19.198Z,1026.60
2023-04-09T01:37:19.545Z,1026.66
2023-04-09T01:38:19.900Z,1026.65
2023-04-09T01:39:20.256Z,1026.70
2023-04-09T01:40:20.605Z,1026.67
2023-04-09T01:41:20.955Z,1026.65
2023-04-09T01:42:21.307Z,1026.63
2023-04-09T01:43:21.651Z,1026.66
2023-04-09T01:44:21.991Z,1026.67
2023-04-09T01:45:22.340Z,1026.65
2023-04-09T01:46:22.766Z,1026.67
2023-04-09T01:47:23.006Z,1026.64
2023-04-09T01:48:23.357Z,1026.67
2023-04-09T01:49:23.692Z,1026.63
2023-04-09T01:50:24.031Z,1026.67
2023-04-09T01:51:24.394Z,1026.60
2023-04-09T01:52:24.734Z,1026.64
2023-04-09T01:53:25.080Z,1026.64
2023-04-09T01:54:25.428Z,1026.69
2023-04-09T01:55:25.771Z,1026.62
2023-04-09T01:56:26.128Z,1026.66
2023-04-09T01:57:26.468Z,1026.66
2023-04-09T01:58:26.915Z,1026.63
2023-04-09T01:59:27.173Z,1026.58
2023-04-09T02:00:27.513Z,1026.59
2023-04-09T02:01:27.910Z,1026.58
2023-04-09T02:02:28.283Z,1026.63
2023-04-09T02:03:28.694Z,1026.58
2023-04-09T02:04:28.944Z,1026.59
2023-04-09T02:05:29.279Z,1026.64
2023-04-09T02:06:29.629Z,1026.59
2023-04-09T02:07:29.981Z,1026.60
2023-04-09T02:08:30.327Z,1026.60
2023-04-09T02:09:30.674Z,1026.62
2023-04-09T02:10:31.011Z,1026.62
2023-04-09T02:11:31.381Z,1026.62
2023-04-09T02:12:31.722Z,1026.64
2023-04-09T02:13:32.080Z,1026.63
2023-04-09T02:14:32.421Z,1026.59
2023-04-09T02:15:32.802Z,1026.66
2023-04-09T02:16:33.134Z,1026.65
2023-04-09T02:17:33.512Z,1026.62
2023-04-09T02:18:33.815Z,1026.67
2023-04-09T02:19:34.163Z,1026.67
2023-04-09T02:20:34.596Z,1026.62
2023-04-09T02:21:34.876Z,1026.64
2023-04-09T02:22:35.222Z,1026.60
2023-04-09T02:23:35.563Z,1026.64
2023-04-09T02:24:35.909Z,1026.58
2023-04-09T02:25:36.256Z,1026.63
2023-04-09T02:26:36.625Z,1026.58
2023-04-09T02:27:36.960Z,1026.61
2023-04-09T02:28:37.313Z,1026.56
2023-04-09T02:29:37.653Z,1026.60
2023-04-09T02:30:38.119Z,1026.58
2023-04-09T02:31:38.352Z,1026.58
2023-04-09T02:32:38.753Z,1026.58
2023-04-09T02:33:39.062Z,1026.55
2023-04-09T02:34:39.398Z,1026.56
2023-04-09T02:35:39.764Z,1026.56
2023-04-09T02:36:40.123Z,1026.57
2023-04-09T02:37:40.435Z,1026.58
2023-04-09T02:38:40.782Z,1026.55
2023-04-09T02:39:41.130Z,1026.52
2023-04-09T02:40:41.558Z,1026.59
2023-04-09T02:41:41.852Z,1026.60
2023-04-09T02:42:42.158Z,1026.55
2023-04-09T02:43:42.508Z,1026.50
2023-04-09T02:44:42.861Z,1026.48
2023-04-09T02:45:43.235Z,1026.50
2023-04-09T02:46:43.656Z,1026.45
2023-04-09T02:47:44.014Z,1026.47
2023-04-09T02:48:44.311Z,1026.47
2023-04-09T02:49:44.647Z,1026.40
2023-04-09T02:50:45.015Z,1026.42
2023-04-09T02:51:45.380Z,1026.39
2023-04-09T02:52:45.714Z,1026.43
2023-04-09T02:53:46.064Z,1026.40
2023-04-09T02:54:46.400Z,1026.40
2023-04-09T02:55:46.743Z,1026.39
2023-04-09T02:56:47.121Z,1026.33
2023-04-09T02:57:47.446Z,1026.30
2023-04-09T02:58:47.790Z,1026.30
2023-04-09T02:59:48.137Z,1026.30
2023-04-09T03:00:48.493Z,1026.31
2023-04-09T03:01:48.899Z,1026.31
2023-04-09T03:02:49.264Z,1026.29
2023-04-09T03:03:49.610Z,1026.28
2023-04-09T03:04:49.879Z,1026.28
2023-04-09T03:05:50.224Z,1026.28
2023-04-09T03:06:50.582Z,1026.28
2023-04-09T03:07:50.930Z,1026.27
2023-04-09T03:08:51.481Z,1026.29
2023-04-09T03:09:51.620Z,1026.28
2023-04-09T03:10:51.945Z,1026.30
2023-04-09T03:11:52.309Z,1026.33
2023-04-09T03:12:52.677Z,1026.30
2023-04-09T03:13:53.004Z,1026.27
2023-04-09T03:14:53.355Z,1026.30
2023-04-09T03:15:53.793Z,1026.29
2023-04-09T03:16:54.073Z,1026.31
2023-04-09T03:17:54.479Z,1026.30
2023-04-09T03:18:54.801Z,1026.35
2023-04-09T03:19:55.094Z,1026.30
2023-04-09T03:20:55.442Z,1026.30
2023-04-09T03:21:55.799Z,1026.32
2023-04-09T03:22:56.140Z,1026.26
2023-04-09T03:23:56.473Z,1026.27
2023-04-09T03:24:56.805Z,1026.29
2023-04-09T03:25:57.156Z,1026.24
2023-04-09T03:26:57.549Z,1026.22
2023-04-09T03:27:57.853Z,1026.23
2023-04-09T03:28:58.201Z,1026.22
2023-04-09T03:29:58.553Z,1026.20
2023-04-09T03:30:58.948Z,1026.19
2023-04-09T03:31:59.298Z,1026.22
2023-04-09T03:32:59.630Z,1026.17
2023-04-09T03:33:59.955Z,1026.21
2023-04-09T03:35:00.295Z,1026.20
2023-04-09T03:36:00.688Z,1026.19
2023-04-09T03:37:01.027Z,1026.22
2023-04-09T03:38:01.318Z,1026.19
2023-04-09T03:39:01.774Z,1026.24
2023-04-09T03:40:02.004Z,1026.19
2023-04-09T03:41:02.330Z,1026.18
2023-04-09T03:42:02.730Z,1026.14
2023-04-09T03:43:03.037Z,1026.14
2023-04-09T03:44:03.375Z,1026.12
2023-04-09T03:45:03.718Z,1026.11
2023-04-09T03:46:04.179Z,1026.15
2023-04-09T03:47:04.498Z,1026.18
2023-04-09T03:48:04.801Z,1026.13
2023-04-09T03:49:05.159Z,1026.10
2023-04-09T03:50:05.492Z,1026.11
2023-04-09T03:51:05.840Z,1026.18
2023-04-09T03:52:06.215Z,1026.14
2023-04-09T03:53:06.552Z,1026.12
2023-04-09T03:54:06.836Z,1026.19
2023-04-09T03:55:07.188Z,1026.13
2023-04-09T03:56:07.559Z,1026.15
2023-04-09T03:57:07.903Z,1026.06
2023-04-09T03:58:08.233Z,1026.07
2023-04-09T03:59:08.571Z,1026.08
2023-04-09T04:00:08.924Z,1026.14
2023-04-09T04:01:09.275Z,1026.08
2023-04-09T04:02:09.703Z,1026.14
2023-04-09T04:03:10.112Z,1026.05
2023-04-09T04:04:10.384Z,1026.09
2023-04-09T04:05:10.677Z,1026.10
2023-04-09T04:06:11.059Z,1026.11
2023-04-09T04:07:11.302Z,1026.16
2023-04-09T04:08:11.589Z,1026.14
2023-04-09T04:09:11.875Z,1026.14
2023-04-09T04:10:12.196Z,1026.17
2023-04-09T04:11:12.451Z,1026.15
2023-04-09T04:12:12.741Z,1026.15
2023-04-09T04:13:13.039Z,1026.15
2023-04-09T04:14:13.261Z,1026.16
2023-04-09T04:15:13.561Z,1026.15
2023-04-09T04:16:13.877Z,1026.15
2023-04-09T04:17:14.142Z,1026.12
2023-04-09T04:18:14.415Z,1026.16
2023-04-09T04:19:14.708Z,1026.19
2023-04-09T04:20:14.999Z,1026.21
2023-04-09T04:21:15.302Z,1026.16
2023-04-09T04:22:15.589Z,1026.24
2023-04-09T04:23:15.848Z,1026.23
2023-04-09T04:24:16.120Z,1026.18
2023-04-09T04:25:16.370Z,1026.17
2023-04-09T04:26:16.446Z,1026.19
2023-04-09T04:27:16.634Z,1026.14
2023-04-09T04:28:16.943Z,1026.17
2023-04-09T04:29:17.053Z,1026.18
2023-04-09T04:30:17.340Z,1026.17
2023-04-09T04:31:17.526Z,1026.17
2023-04-09T04:32:17.717Z,1026.23
2023-04-09T04:33:17.838Z,1026.19
2023-04-09T04:34:18.144Z,1026.19
2023-04-09T04:35:18.469Z,1026.22
2023-04-09T04:36:18.704Z,1026.24
2023-04-09T04:37:19.003Z,1026.20
2023-04-09T04:38:19.278Z,1026.26
2023-04-09T04:39:19.569Z,1026.27
2023-04-09T04:40:19.743Z,1026.27
2023-04-09T04:41:20.034Z,1026.28
2023-04-09T04:42:20.352Z,1026.30
2023-04-09T04:43:20.512Z,1026.30
2023-04-09T04:44:20.682Z,1026.28
2023-04-09T04:45:20.860Z,1026.28
2023-04-09T04:46:21.143Z,1026.29
2023-04-09T04:47:21.207Z,1026.31
2023-04-09T04:48:21.360Z,1026.32
2023-04-09T04:49:21.532Z,1026.29
2023-04-09T04:50:21.709Z,1026.30
2023-04-09T04:51:21.884Z,1026.29
2023-04-09T04:52:22.055Z,1026.34
2023-04-09T04:53:22.218Z,1026.37
2023-04-09T04:54:22.391Z,1026.38
2023-04-09T04:55:22.566Z,1026.36
2023-04-09T04:56:22.755Z,1026.37
2023-04-09T04:57:23.032Z,1026.36
2023-04-09T04:58:23.198Z,1026.36
2023-04-09T04:59:23.365Z,1026.33
2023-04-09T05:00:23.533Z,1026.38
2023-04-09T05:01:23.739Z,1026.37
2023-04-09T05:02:24.111Z,1026.33
2023-04-09T05:03:26.101Z,1026.35
2023-04-09T05:04:24.218Z,1026.31
2023-04-09T05:05:24.390Z,1026.36
2023-04-09T05:06:24.553Z,1026.37
2023-04-09T05:07:24.781Z,1026.36
2023-04-09T05:08:24.906Z,1026.37
2023-04-09T05:09:25.075Z,1026.32
2023-04-09T05:10:25.252Z,1026.36
2023-04-09T05:11:25.413Z,1026.35
2023-04-09T05:12:25.618Z,1026.35
2023-04-09T05:13:25.765Z,1026.36
2023-04-09T05:14:25.954Z,1026.36
2023-04-09T05:15:26.227Z,1026.38
2023-04-09T05:16:26.448Z,1026.38
2023-04-09T05:17:26.627Z,1026.42
2023-04-09T05:18:26.741Z,1026.36
2023-04-09T05:19:26.925Z,1026.41
2023-04-09T05:20:27.109Z,1026.39
2023-04-09T05:21:27.386Z,1026.32
2023-04-09T05:22:27.583Z,1026.37
2023-04-09T05:23:27.731Z,1026.35
2023-04-09T05:24:28.035Z,1026.35
2023-04-09T05:25:28.211Z,1026.33
2023-04-09T05:26:28.394Z,1026.36
2023-04-09T05:27:28.594Z,1026.35
2023-04-09T05:28:28.751Z,1026.34
2023-04-09T05:29:28.920Z,1026.28
2023-04-09T05:30:29.109Z,1026.32
2023-04-09T05:31:29.407Z,1026.28
2023-04-09T05:32:29.649Z,1026.29
2023-04-09T05:33:29.763Z,1026.37
2023-04-09T05:34:30.104Z,1026.29
2023-04-09T05:35:30.357Z,1026.32
2023-04-09T05:36:30.539Z,1026.36
2023-04-09T05:37:30.856Z,1026.33
2023-04-09T05:38:31.027Z,1026.38
2023-04-09T05:39:31.343Z,1026.39
2023-04-09T05:40:31.512Z,1026.38
2023-04-09T05:41:31.809Z,1026.44
2023-04-09T05:42:32.134Z,1026.40
2023-04-09T05:43:32.455Z,1026.35
2023-04-09T05:44:32.589Z,1026.36
2023-04-09T05:45:32.901Z,1026.35
2023-04-09T05:46:33.089Z,1026.31
2023-04-09T05:47:33.402Z,1026.33
2023-04-09T05:48:33.555Z,1026.32
2023-04-09T05:49:33.729Z,1026.27
2023-04-09T05:50:43.650Z,1026.36
2023-04-09T05:51:34.109Z,1026.34
2023-04-09T05:52:34.305Z,1026.32
2023-04-09T05:53:34.441Z,1026.34
2023-04-09T05:54:34.736Z,1026.37
2023-04-09T05:55:34.903Z,1026.40
2023-04-09T05:56:35.200Z,1026.41
2023-04-09T05:57:35.523Z,1026.41
2023-04-09T05:58:35.691Z,1026.42
2023-04-09T05:59:36.004Z,1026.42
2023-04-09T06:00:36.157Z,1026.48
2023-04-09T06:01:36.483Z,1026.43
2023-04-09T06:02:36.811Z,1026.42
2023-04-09T06:03:37.197Z,1026.48
2023-04-09T06:04:37.407Z,1026.41
2023-04-09T06:05:37.682Z,1026.44
2023-04-09T06:06:37.851Z,1026.44
2023-04-09T06:07:38.063Z,1026.41
2023-04-09T06:08:38.212Z,1026.44
2023-04-09T06:09:38.540Z,1026.48
2023-04-09T06:10:40.467Z,1026.49
2023-04-09T06:11:39.125Z,1026.48
2023-04-09T06:12:39.417Z,1026.53
2023-04-09T06:13:39.590Z,1026.50
2023-04-09T06:14:39.785Z,1026.51
2023-04-09T06:15:40.108Z,1026.51
2023-04-09T06:16:40.252Z,1026.51
2023-04-09T06:17:40.589Z,1026.48
2023-04-09T06:18:40.853Z,1026.41
2023-04-09T06:19:41.024Z,1026.47
2023-04-09T06:20:41.327Z,1026.52
2023-04-09T06:21:41.637Z,1026.52
2023-04-09T06:22:41.819Z,1026.61
2023-04-09T06:23:41.977Z,1026.57
2023-04-09T06:24:42.159Z,1026.64
2023-04-09T06:25:42.459Z,1026.64
2023-04-09T06:26:42.632Z,1026.60
2023-04-09T06:27:42.849Z,1026.63
2023-04-09T06:28:43.001Z,1026.64
2023-04-09T06:29:43.164Z,1026.64
2023-04-09T06:30:43.352Z,1026.66
2023-04-09T06:31:43.634Z,1026.69
2023-04-09T06:32:53.801Z,1026.68
2023-04-09T06:33:43.889Z,1026.68
2023-04-09T06:34:44.273Z,1026.67
2023-04-09T06:35:44.524Z,1026.68
2023-04-09T06:36:44.673Z,1026.69
2023-04-09T06:37:44.990Z,1026.71
2023-04-09T06:38:45.148Z,1026.68
2023-04-09T06:39:58.227Z,1026.72
2023-04-09T06:40:45.542Z,1026.72
2023-04-09T06:41:45.708Z,1026.69
2023-04-09T06:42:45.876Z,1026.70
2023-04-09T06:43:46.049Z,1026.68
2023-04-09T06:44:46.342Z,1026.67
2023-04-09T06:45:46.663Z,1026.63
2023-04-09T06:46:46.896Z,1026.71
2023-04-09T06:47:47.241Z,1026.67
2023-04-09T06:48:47.332Z,1026.67
2023-04-09T06:49:47.477Z,1026.72
2023-04-09T06:50:47.680Z,1026.63
2023-04-09T06:51:47.846Z,1026.71
2023-04-09T06:52:48.162Z,1026.71
2023-04-09T06:53:48.479Z,1026.69
2023-04-09T06:54:48.522Z,1026.66
2023-04-09T06:55:48.823Z,1026.65
2023-04-09T06:56:49.021Z,1026.68
2023-04-09T06:57:49.188Z,1026.67
2023-04-09T06:58:49.359Z,1026.68
2023-04-09T06:59:49.545Z,1026.67
2023-04-09T07:00:49.859Z,1026.69
2023-04-09T07:01:51.169Z,1026.68
2023-04-09T07:02:50.294Z,1026.69
2023-04-09T07:03:50.489Z,1026.71
2023-04-09T07:04:50.445Z,1026.67
2023-04-09T07:05:50.731Z,1026.71
2023-04-09T07:06:50.918Z,1026.69
2023-04-09T07:07:51.114Z,1026.72
2023-04-09T07:08:51.425Z,1026.73
2023-04-09T07:09:51.568Z,1026.70
2023-04-09T07:10:51.764Z,1026.70
2023-04-09T07:11:52.058Z,1026.69
2023-04-09T07:12:52.366Z,1026.67
2023-04-09T07:13:53.093Z,1026.74
2023-04-09T07:14:52.858Z,1026.73
2023-04-09T07:15:53.057Z,1026.72
2023-04-09T07:16:53.347Z,1026.75
2023-04-09T07:17:53.646Z,1026.70
2023-04-09T07:18:53.689Z,1026.70
2023-04-09T07:19:53.993Z,1026.68
2023-04-09T07:20:54.290Z,1026.71
2023-04-09T07:21:54.496Z,1026.70
2023-04-09T07:22:54.771Z,1026.70
2023-04-09T07:23:55.175Z,1026.71
2023-04-09T07:24:55.158Z,1026.76
2023-04-09T07:25:55.351Z,1026.73
2023-04-09T07:26:55.692Z,1026.75
2023-04-09T07:27:55.807Z,1026.75
2023-04-09T07:28:55.972Z,1026.72
2023-04-09T07:29:56.298Z,1026.74
2023-04-09T07:30:56.459Z,1026.72
2023-04-09T07:31:56.708Z,1026.74
2023-04-09T07:32:56.985Z,1026.70
2023-04-09T07:33:57.248Z,1026.71
2023-04-09T07:34:57.574Z,1026.71
2023-04-09T07:35:57.643Z,1026.66
2023-04-09T07:36:57.887Z,1026.71
2023-04-09T07:37:58.217Z,1026.72
2023-04-09T07:38:58.490Z,1026.69
2023-04-09T07:39:58.666Z,1026.70
2023-04-09T07:40:58.978Z,1026.71
2023-04-09T07:41:59.254Z,1026.73
2023-04-09T07:42:59.633Z,1026.62
2023-04-09T07:43:59.855Z,1026.65
2023-04-09T07:45:01.593Z,1026.65
2023-04-09T07:46:00.435Z,1026.66
2023-04-09T07:47:00.554Z,1026.70
2023-04-09T07:48:00.933Z,1026.63
2023-04-09T07:49:00.878Z,1026.69
2023-04-09T07:50:01.062Z,1026.63
2023-04-09T07:51:01.363Z,1026.65
2023-04-09T07:52:01.667Z,1026.68
2023-04-09T07:53:01.892Z,1026.66
2023-04-09T07:54:02.193Z,1026.62
2023-04-09T07:55:02.459Z,1026.64
2023-04-09T07:56:02.618Z,1026.61
2023-04-09T07:57:02.962Z,1026.59
2023-04-09T07:58:03.235Z,1026.63
2023-04-09T07:59:03.402Z,1026.66
2023-04-09T08:00:03.586Z,1026.63
2023-04-09T08:01:03.745Z,1026.67
2023-04-09T08:02:04.063Z,1026.63
2023-04-09T08:03:04.462Z,1026.60
2023-04-09T08:04:04.993Z,1026.58
2023-04-09T08:05:04.856Z,1026.62
2023-04-09T08:06:05.123Z,1026.58
2023-04-09T08:07:05.455Z,1026.67
2023-04-09T08:08:05.633Z,1026.63
2023-04-09T08:09:05.778Z,1026.67
2023-04-09T08:10:05.981Z,1026.63
2023-04-09T08:11:06.157Z,1026.61
2023-04-09T08:12:06.324Z,1026.68
2023-04-09T08:13:06.641Z,1026.68
2023-04-09T08:14:06.813Z,1026.68
2023-04-09T08:15:06.981Z,1026.69
2023-04-09T08:16:07.282Z,1026.70
2023-04-09T08:17:07.587Z,1026.69
2023-04-09T08:18:07.889Z,1026.69
2023-04-09T08:19:07.928Z,1026.76
2023-04-09T08:20:08.224Z,1026.75
2023-04-09T08:21:08.544Z,1026.73
2023-04-09T08:22:08.700Z,1026.71
2023-04-09T08:23:09.088Z,1026.65
2023-04-09T08:24:09.171Z,1026.72
2023-04-09T08:25:09.517Z,1026.71
2023-04-09T08:26:09.648Z,1026.66
2023-04-09T08:27:09.947Z,1026.65
2023-04-09T08:28:10.152Z,1026.68
2023-04-09T08:29:10.420Z,1026.68
2023-04-09T08:30:10.752Z,1026.67
2023-04-09T08:31:10.900Z,1026.71
2023-04-09T08:32:11.248Z,1026.69
2023-04-09T08:33:11.305Z,1026.71
2023-04-09T08:34:11.607Z,1026.73
2023-04-09T08:35:11.757Z,1026.68
2023-04-09T08:36:12.136Z,1026.77
2023-04-09T08:37:12.338Z,1026.73
2023-04-09T08:38:12.650Z,1026.72
2023-04-09T08:39:12.926Z,1026.74
2023-04-09T08:40:13.227Z,1026.78
2023-04-09T08:41:14.126Z,1026.76
2023-04-09T08:42:13.823Z,1026.71
2023-04-09T08:43:14.021Z,1026.72
2023-04-09T08:44:14.195Z,1026.69
2023-04-09T08:45:14.371Z,1026.74
2023-04-09T08:46:14.575Z,1026.70
2023-04-09T08:47:14.840Z,1026.68
2023-04-09T08:48:15.043Z,1026.69
2023-04-09T08:49:15.204Z,1026.68
2023-04-09T08:50:15.388Z,1026.68
2023-04-09T08:51:15.555Z,1026.71
2023-04-09T08:52:15.892Z,1026.70
2023-04-09T08:53:16.107Z,1026.72
2023-04-09T08:54:16.231Z,1026.76
2023-04-09T08:55:16.399Z,1026.72
2023-04-09T08:56:16.558Z,1026.73
2023-04-09T08:57:16.738Z,1026.74
2023-04-09T08:58:16.951Z,1026.69
2023-04-09T08:59:17.111Z,1026.71
2023-04-09T09:00:17.294Z,1026.73
2023-04-09T09:01:17.485Z,1026.75
2023-04-09T09:02:17.663Z,1026.72
2023-04-09T09:03:17.941Z,1026.70
2023-04-09T09:04:18.033Z,1026.73
2023-04-09T09:05:18.159Z,1026.74
2023-04-09T09:06:18.386Z,1026.72
2023-04-09T09:07:18.661Z,1026.76
2023-04-09T09:08:18.839Z,1026.76
2023-04-09T09:09:18.992Z,1026.73
2023-04-09T09:10:19.161Z,1026.65
2023-04-09T09:11:19.332Z,1026.68
2023-04-09T09:12:19.515Z,1026.72
2023-04-09T09:13:20.565Z,1026.69
2023-04-09T09:14:19.875Z,1026.62
2023-04-09T09:15:20.062Z,1026.67
2023-04-09T09:16:20.344Z,1026.68
2023-04-09T09:17:20.483Z,1026.61
2023-04-09T09:18:20.648Z,1026.62
2023-04-09T09:19:20.826Z,1026.65
2023-04-09T09:20:21.005Z,1026.63
2023-04-09T09:21:21.187Z,1026.61
2023-04-09T09:22:21.378Z,1026.59
2023-04-09T09:23:21.576Z,1026.61
2023-04-09T09:24:21.775Z,1026.61
2023-04-09T09:25:21.972Z,1026.60
2023-04-09T09:26:22.183Z,1026.61
2023-04-09T09:27:22.390Z,1026.59
2023-04-09T09:28:22.604Z,1026.60
2023-04-09T09:29:22.771Z,1026.64
2023-04-09T09:30:22.982Z,1026.63
2023-04-09T09:31:23.270Z,1026.65
2023-04-09T09:32:23.496Z,1026.65
2023-04-09T09:33:23.662Z,1026.70
2023-04-09T09:34:23.869Z,1026.70
2023-04-09T09:35:24.041Z,1026.66
2023-04-09T09:36:24.191Z,1026.67
2023-04-09T09:37:24.402Z,1026.62
2023-04-09T09:38:24.643Z,1026.63
2023-04-09T09:39:24.834Z,1026.66
2023-04-09T09:40:25.044Z,1026.62
2023-04-09T09:41:25.269Z,1026.61
2023-04-09T09:42:25.441Z,1026.59
2023-04-09T09:43:25.697Z,1026.61
2023-04-09T09:44:25.862Z,1026.59
2023-04-09T09:45:26.076Z,1026.60
2023-04-09T09:46:26.403Z,1026.57
2023-04-09T09:47:26.478Z,1026.54
2023-04-09T09:48:28.345Z,1026.56
2023-04-09T09:49:26.829Z,1026.62
2023-04-09T09:50:27.053Z,1026.56
2023-04-09T09:51:27.280Z,1026.59
2023-04-09T09:52:27.454Z,1026.60
2023-04-09T09:53:27.700Z,1026.65
2023-04-09T09:54:27.888Z,1026.63
2023-04-09T09:55:28.108Z,1026.59
2023-04-09T09:56:28.285Z,1026.60
2023-04-09T09:57:28.479Z,1026.58
2023-04-09T09:58:28.710Z,1026.58
2023-04-09T09:59:28.892Z,1026.56
2023-04-09T10:00:29.099Z,1026.55
2023-04-09T10:01:29.336Z,1026.54
2023-04-09T10:02:29.569Z,1026.52
2023-04-09T10:03:29.772Z,1026.54
2023-04-09T10:04:29.929Z,1026.52
2023-04-09T10:05:30.062Z,1026.52
2023-04-09T10:06:30.278Z,1026.50
2023-04-09T10:07:30.499Z,1026.45
2023-04-09T10:08:30.724Z,1026.46
2023-04-09T10:09:30.923Z,1026.47
2023-04-09T10:10:31.090Z,1026.42
2023-04-09T10:11:31.267Z,1026.43
2023-04-09T10:12:31.465Z,1026.46
2023-04-09T10:13:31.715Z,1026.45
2023-04-09T10:14:31.870Z,1026.45
2023-04-09T10:15:32.186Z,1026.42
2023-04-09T10:16:32.305Z,1026.44
2023-04-09T10:17:32.521Z,1026.37
2023-04-09T10:18:32.671Z,1026.36
2023-04-09T10:19:32.836Z,1026.33
2023-04-09T10:20:33.083Z,1026.37
2023-04-09T10:21:33.255Z,1026.36
2023-04-09T10:22:33.470Z,1026.36
2023-04-09T10:23:33.705Z,1026.31
2023-04-09T10:24:33.893Z,1026.35
2023-04-09T10:25:34.110Z,1026.32
2023-04-09T10:26:34.325Z,1026.25
2023-04-09T10:27:34.539Z,1026.25
2023-04-09T10:28:34.857Z,1026.19
2023-04-09T10:29:34.949Z,1026.30
2023-04-09T10:30:35.179Z,1026.17
2023-04-09T10:31:35.422Z,1026.17
2023-04-09T10:32:35.598Z,1026.28
2023-04-09T10:33:35.834Z,1026.20
2023-04-09T10:34:35.977Z,1026.29
2023-04-09T10:35:36.158Z,1026.26
2023-04-09T10:36:36.366Z,1026.22
2023-04-09T10:37:36.593Z,1026.17
2023-04-09T10:38:36.834Z,1026.15
2023-04-09T10:39:37.013Z,1026.12
2023-04-09T10:40:37.216Z,1026.13
2023-04-09T10:41:37.405Z,1026.09
2023-04-09T10:42:37.618Z,1026.07
2023-04-09T10:43:37.846Z,1026.08
2023-04-09T10:44:38.002Z,1026.13
2023-04-09T10:45:38.220Z,1026.17
2023-04-09T10:46:38.431Z,1026.18
2023-04-09T10:47:38.603Z,1026.16
2023-04-09T10:48:38.793Z,1026.18
2023-04-09T10:49:38.975Z,1026.11
2023-04-09T10:50:39.300Z,1026.12
2023-04-09T10:51:39.414Z,1026.14
2023-04-09T10:52:39.619Z,1026.16
2023-04-09T10:53:39.850Z,1026.13
2023-04-09T10:54:40.046Z,1026.18
2023-04-09T10:55:40.229Z,1026.06
2023-04-09T10:56:40.405Z,1026.11
2023-04-09T10:57:40.619Z,1026.10
2023-04-09T10:58:40.806Z,1026.11
2023-04-09T10:59:40.981Z,1026.17
2023-04-09T11:00:41.200Z,1026.17
2023-04-09T11:01:41.453Z,1026.15
2023-04-09T11:02:41.707Z,1026.18
2023-04-09T11:03:41.861Z,1026.10
2023-04-09T11:04:42.067Z,1026.11
2023-04-09T11:05:42.231Z,1026.15
2023-04-09T11:06:42.417Z,1026.16
2023-04-09T11:07:42.605Z,1026.13
2023-04-09T11:08:42.851Z,1026.17
2023-04-09T11:09:43.032Z,1026.12
2023-04-09T11:10:43.226Z,1026.14
2023-04-09T11:11:43.445Z,1026.13
2023-04-09T11:12:43.625Z,1026.13
2023-04-09T11:13:43.846Z,1026.10
2023-04-09T11:14:44.034Z,1026.08
2023-04-09T11:15:44.250Z,1026.09
2023-04-09T11:16:44.518Z,1026.07
2023-04-09T11:17:44.663Z,1026.05
2023-04-09T11:18:44.790Z,1026.08
2023-04-09T11:19:44.997Z,1026.02
2023-04-09T11:20:45.246Z,1026.01
2023-04-09T11:21:45.427Z,1026.03
2023-04-09T11:22:45.653Z,1026.01
2023-04-09T11:23:45.835Z,1026.04
2023-04-09T11:24:46.021Z,1025.94
2023-04-09T11:25:46.193Z,1025.99
2023-04-09T11:26:46.395Z,1025.91
2023-04-09T11:27:47.156Z,1025.95
2023-04-09T11:28:46.816Z,1025.95
2023-04-09T11:29:46.998Z,1025.93
2023-04-09T11:30:47.226Z,1025.87
2023-04-09T11:31:47.416Z,1025.81
2023-04-09T11:32:47.604Z,1025.94
2023-04-09T11:33:47.794Z,1025.95
2023-04-09T11:34:47.925Z,1025.88
2023-04-09T11:35:48.219Z,1025.90
2023-04-09T11:36:48.324Z,1025.89
2023-04-09T11:37:48.545Z,1025.79
2023-04-09T11:38:48.773Z,1025.83
2023-04-09T11:39:48.941Z,1025.82
2023-04-09T11:40:49.804Z,1025.81
2023-04-09T11:41:49.359Z,1025.71
2023-04-09T11:42:49.586Z,1025.70
2023-04-09T11:43:49.817Z,1025.72
2023-04-09T11:44:49.977Z,1025.73
2023-04-09T11:45:50.215Z,1025.66
2023-04-09T11:46:50.532Z,1025.70
2023-04-09T11:47:50.641Z,1025.65
2023-04-09T11:48:51.004Z,1025.64
2023-04-09T11:49:50.995Z,1025.65
2023-04-09T11:50:51.171Z,1025.67
2023-04-09T11:51:51.372Z,1025.63
2023-04-09T11:52:51.641Z,1025.61
2023-04-09T11:53:51.826Z,1025.58
2023-04-09T11:54:51.972Z,1025.57
2023-04-09T11:55:52.349Z,1025.47
2023-04-09T11:56:52.366Z,1025.45
2023-04-09T11:57:52.580Z,1025.66
2023-04-09T11:58:52.980Z,1025.68
2023-04-09T11:59:53.006Z,1025.68
2023-04-09T12:00:53.221Z,1025.58
2023-04-09T12:01:53.456Z,1025.65
2023-04-09T12:02:53.789Z,1025.59
2023-04-09T12:03:54.046Z,1025.57
2023-04-09T12:04:54.168Z,1025.50
2023-04-09T12:05:54.215Z,1025.49
2023-04-09T12:06:54.462Z,1025.45
2023-04-09T12:07:56.544Z,1025.49
2023-04-09T12:08:54.870Z,1025.49